createdAt,value
2022-12-22T00:02:33.449Z,6.60
2022-12-22T00:05:19.772Z,6.60
2022-12-22T00:08:05.248Z,6.60
2022-12-22T00:10:52.217Z,6.60
2022-12-22T00:13:38.106Z,6.60
2022-12-22T00:16:24.222Z,6.70
2022-12-22T00:19:09.720Z,6.70
2022-12-22T00:21:55.738Z,6.70
2022-12-22T00:24:41.134Z,6.70
2022-12-22T00:27:31.757Z,6.80
2022-12-22T00:30:17.416Z,6.80
2022-12-22T00:33:03.247Z,6.80
2022-12-22T00:35:48.955Z,6.80
2022-12-22T00:38:36.936Z,6.80
2022-12-22T00:41:22.880Z,6.80
2022-12-22T00:44:10.614Z,6.80
2022-12-22T00:46:57.635Z,6.80
2022-12-22T00:49:45.516Z,6.80
2022-12-22T00:52:31.210Z,6.80
2022-12-22T00:55:17.770Z,6.90
2022-12-22T00:58:03.216Z,6.90
2022-12-22T01:00:50.199Z,7.10
2022-12-22T01:03:36.368Z,7.20
2022-12-22T01:06:22.459Z,7.10
2022-12-22T01:09:08.476Z,7.10
2022-12-22T01:11:54.359Z,7.20
2022-12-22T01:14:40.143Z,7.40
2022-12-22T01:17:29.512Z,7.50
2022-12-22T01:20:15.391Z,7.60
2022-12-22T01:23:01.374Z,7.70
2022-12-22T01:25:47.000Z,7.70
2022-12-22T01:28:34.113Z,7.80
2022-12-22T01:31:32.292Z,7.70
2022-12-22T01:34:19.886Z,7.70
2022-12-22T01:37:05.636Z,7.60
2022-12-22T01:39:51.550Z,7.40
2022-12-22T01:42:37.304Z,7.20
2022-12-22T01:45:35.326Z,7.10
2022-12-22T01:48:20.986Z,7.00
2022-12-22T01:51:08.838Z,6.90
2022-12-22T01:53:54.661Z,6.90
2022-12-22T01:56:40.644Z,6.80
2022-12-22T01:59:26.367Z,6.80
2022-12-22T02:02:12.842Z,6.90
2022-12-22T02:05:00.557Z,6.90
2022-12-22T02:07:55.002Z,6.80
2022-12-22T02:10:54.696Z,6.80
2022-12-22T02:13:44.574Z,6.80
2022-12-22T02:16:52.585Z,6.80
2022-12-22T02:19:48.116Z,6.80
2022-12-22T02:22:38.233Z,6.80
2022-12-22T02:25:29.895Z,6.80
2022-12-22T02:28:17.292Z,6.80
2022-12-22T02:31:03.642Z,6.80
2022-12-22T02:33:49.108Z,6.80
2022-12-22T02:36:38.161Z,6.80
2022-12-22T02:39:30.594Z,6.80
2022-12-22T02:42:20.927Z,6.80
2022-12-22T02:45:12.843Z,6.80
2022-12-22T02:48:02.402Z,6.80
2022-12-22T02:50:50.093Z,6.80
2022-12-22T02:53:37.069Z,6.80
2022-12-22T02:56:24.997Z,6.90
2022-12-22T02:59:10.673Z,6.90
2022-12-22T03:01:58.959Z,6.90
2022-12-22T03:04:44.991Z,6.90
2022-12-22T03:07:30.692Z,6.90
2022-12-22T03:10:16.588Z,6.90
2022-12-22T03:13:02.193Z,6.80
2022-12-22T03:15:47.632Z,6.80
2022-12-22T03:18:34.792Z,6.80
2022-12-22T03:21:20.389Z,6.80
2022-12-22T03:24:06.355Z,6.80
2022-12-22T03:26:34.467Z,7.00
2022-12-22T03:29:02.880Z,7.10
2022-12-22T03:31:30.989Z,7.30
2022-12-22T03:34:00.885Z,7.30
2022-12-22T03:36:28.959Z,7.40
2022-12-22T03:38:57.606Z,7.50
2022-12-22T03:41:42.860Z,7.60
2022-12-22T03:44:28.857Z,7.70
2022-12-22T03:46:57.037Z,7.70
2022-12-22T03:49:26.707Z,7.70
2022-12-22T03:51:54.874Z,7.70
2022-12-22T03:54:23.945Z,7.60
2022-12-22T03:56:52.554Z,7.60
2022-12-22T03:59:20.976Z,7.60
2022-12-22T04:01:50.123Z,7.60
2022-12-22T04:04:19.566Z,7.60
2022-12-22T04:06:49.673Z,7.60
2022-12-22T04:09:17.749Z,7.50
2022-12-22T04:12:04.035Z,7.60
2022-12-22T04:14:34.603Z,7.60
2022-12-22T04:17:03.781Z,7.50
2022-12-22T04:19:32.069Z,7.50
2022-12-22T04:22:01.845Z,7.50
2022-12-22T04:24:30.137Z,7.50
2022-12-22T04:26:58.262Z,7.60
2022-12-22T04:29:26.440Z,7.60
2022-12-22T04:31:54.524Z,7.60
2022-12-22T04:34:23.378Z,7.60
2022-12-22T04:36:51.369Z,7.70
2022-12-22T04:39:21.102Z,7.70
2022-12-22T04:41:49.605Z,7.80
2022-12-22T04:44:17.823Z,7.90
2022-12-22T04:46:47.045Z,7.90
2022-12-22T04:49:15.091Z,8.00
2022-12-22T04:51:43.277Z,8.00
2022-12-22T04:54:11.846Z,8.10
2022-12-22T04:56:41.709Z,9.50
2022-12-22T04:59:10.222Z,8.20
2022-12-22T05:01:38.387Z,8.20
2022-12-22T05:04:06.938Z,8.20
2022-12-22T05:06:34.937Z,8.30
2022-12-22T05:09:03.249Z,8.30
2022-12-22T05:11:31.864Z,8.30
2022-12-22T05:14:07.053Z,8.30
2022-12-22T05:16:36.088Z,8.40
2022-12-22T05:19:04.383Z,8.40
2022-12-22T05:21:32.776Z,8.50
2022-12-22T05:24:00.843Z,8.50
2022-12-22T05:26:29.096Z,8.50
2022-12-22T05:28:57.164Z,8.50
2022-12-22T05:31:27.447Z,8.50
2022-12-22T05:33:55.713Z,8.50
2022-12-22T05:36:24.212Z,8.50
2022-12-22T05:38:52.194Z,8.40
2022-12-22T05:41:20.638Z,8.30
2022-12-22T05:43:49.286Z,8.40
2022-12-22T05:46:17.400Z,8.30
2022-12-22T05:48:47.344Z,8.30
2022-12-22T05:51:15.690Z,8.20
2022-12-22T05:53:43.981Z,8.30
2022-12-22T05:56:12.057Z,8.20
2022-12-22T05:58:40.440Z,8.30
2022-12-22T06:01:08.562Z,8.30
2022-12-22T06:03:36.916Z,8.30
2022-12-22T06:06:07.226Z,8.40
2022-12-22T06:08:35.469Z,8.40
2022-12-22T06:11:04.119Z,8.40
2022-12-22T06:13:32.185Z,8.40
2022-12-22T06:16:00.769Z,8.40
2022-12-22T06:18:29.189Z,8.40
2022-12-22T06:20:57.405Z,8.40
2022-12-22T06:23:27.587Z,8.40
2022-12-22T06:25:56.733Z,8.40
2022-12-22T06:28:25.260Z,8.50
2022-12-22T06:30:53.546Z,8.50
2022-12-22T06:33:22.318Z,8.60
2022-12-22T06:35:57.615Z,8.70
2022-12-22T06:38:28.701Z,8.70
2022-12-22T06:40:56.931Z,8.70
2022-12-22T06:43:24.081Z,8.80
2022-12-22T06:45:53.155Z,8.80
2022-12-22T06:48:21.633Z,8.90
2022-12-22T06:50:50.360Z,8.90
2022-12-22T06:53:18.612Z,8.90
2022-12-22T06:55:48.358Z,9.00
2022-12-22T06:58:16.481Z,9.00
2022-12-22T07:00:48.531Z,9.00
2022-12-22T07:03:17.004Z,9.00
2022-12-22T07:05:45.713Z,9.00
2022-12-22T07:08:14.075Z,9.00
2022-12-22T07:11:00.451Z,9.00
2022-12-22T07:13:32.082Z,9.00
2022-12-22T07:16:01.924Z,9.10
2022-12-22T07:18:32.225Z,9.10
2022-12-22T07:21:01.115Z,9.20
2022-12-22T07:23:29.573Z,9.20
2022-12-22T07:25:58.067Z,9.20
2022-12-22T07:28:46.248Z,9.20
2022-12-22T07:31:17.112Z,9.20
2022-12-22T07:34:03.949Z,9.20
2022-12-22T07:36:32.308Z,9.20
2022-12-22T07:39:00.377Z,9.20
2022-12-22T07:42:05.241Z,9.20
2022-12-22T07:44:53.111Z,9.20
2022-12-22T07:47:40.330Z,9.40
2022-12-22T07:50:27.824Z,9.40
2022-12-22T07:52:57.044Z,9.30
2022-12-22T07:55:25.643Z,9.30
2022-12-22T07:57:54.652Z,9.20
2022-12-22T08:00:42.744Z,9.20
2022-12-22T08:03:11.275Z,9.20
2022-12-22T08:05:57.665Z,9.30
2022-12-22T08:08:44.803Z,9.20
2022-12-22T08:11:12.934Z,9.20
2022-12-22T08:13:42.272Z,9.30
2022-12-22T08:16:12.723Z,9.20
2022-12-22T08:18:59.802Z,9.20
2022-12-22T08:21:52.522Z,9.20
2022-12-22T08:24:21.806Z,9.20
2022-12-22T08:27:13.482Z,9.30
2022-12-22T08:30:02.268Z,9.30
2022-12-22T08:32:51.014Z,9.40
2022-12-22T08:35:19.709Z,9.40
2022-12-22T08:38:06.917Z,9.50
2022-12-22T08:40:54.162Z,9.50
2022-12-22T08:43:40.942Z,9.60
2022-12-22T08:46:09.370Z,9.60
2022-12-22T08:48:38.856Z,9.70
2022-12-22T08:51:07.472Z,9.70
2022-12-22T08:54:03.827Z,9.70
2022-12-22T08:56:23.824Z,9.70
2022-12-22T08:58:51.885Z,9.70
2022-12-22T09:01:20.943Z,9.80
2022-12-22T09:03:52.059Z,9.90
2022-12-22T09:06:26.703Z,9.90
2022-12-22T09:08:56.463Z,10.00
2022-12-22T09:11:25.083Z,9.90
2022-12-22T09:13:54.523Z,9.90
2022-12-22T09:16:24.489Z,9.90
2022-12-22T09:18:54.252Z,10.00
2022-12-22T09:21:22.795Z,10.00
2022-12-22T09:23:51.020Z,10.00
2022-12-22T09:26:21.020Z,10.00
2022-12-22T09:28:50.718Z,10.00
2022-12-22T09:31:19.832Z,10.00
2022-12-22T09:33:47.968Z,10.00
2022-12-22T09:36:18.641Z,10.00
2022-12-22T09:38:48.340Z,10.00
2022-12-22T09:41:17.927Z,10.00
2022-12-22T09:43:46.524Z,10.00
2022-12-22T09:46:18.242Z,10.00
2022-12-22T09:48:46.898Z,10.00
2022-12-22T09:51:18.563Z,10.10
2022-12-22T09:53:53.524Z,10.10
2022-12-22T09:56:23.183Z,10.20
2022-12-22T09:58:51.806Z,10.20
2022-12-22T10:01:27.698Z,10.30
2022-12-22T10:04:02.312Z,10.40
2022-12-22T10:06:34.491Z,10.40
2022-12-22T10:09:43.992Z,10.40
2022-12-22T10:12:02.673Z,10.50
2022-12-22T10:14:34.190Z,10.60
2022-12-22T10:17:22.400Z,10.60
2022-12-22T10:19:51.608Z,10.60
2022-12-22T10:22:23.274Z,10.70
2022-12-22T10:24:52.754Z,10.80
2022-12-22T10:27:28.420Z,10.80
2022-12-22T10:30:12.033Z,10.80
2022-12-22T10:32:40.361Z,10.80
2022-12-22T10:35:08.728Z,10.80
2022-12-22T10:37:38.358Z,10.80
2022-12-22T10:40:16.070Z,10.90
2022-12-22T10:42:48.532Z,10.90
2022-12-22T10:45:20.691Z,10.80
2022-12-22T10:47:50.618Z,10.90
2022-12-22T10:50:19.326Z,10.90
2022-12-22T10:52:52.120Z,11.00
2022-12-22T10:55:23.098Z,10.90
2022-12-22T10:57:51.725Z,11.00
2022-12-22T11:00:24.342Z,11.00
2022-12-22T11:02:53.309Z,11.10
2022-12-22T11:05:21.664Z,11.20
2022-12-22T11:07:50.186Z,11.40
2022-12-22T11:10:21.280Z,11.50
2022-12-22T11:13:02.549Z,11.60
2022-12-22T11:15:35.420Z,11.50
2022-12-22T11:18:06.907Z,11.50
2022-12-22T11:20:41.698Z,11.30
2022-12-22T11:23:13.373Z,11.10
2022-12-22T11:25:46.681Z,11.00
2022-12-22T11:28:27.215Z,10.70
2022-12-22T11:31:02.516Z,10.60
2022-12-22T11:33:35.670Z,10.40
2022-12-22T11:36:05.808Z,10.20
2022-12-22T11:38:42.248Z,10.20
2022-12-22T11:41:16.084Z,10.10
2022-12-22T11:43:52.996Z,10.00
2022-12-22T11:46:25.940Z,10.00
2022-12-22T11:49:06.671Z,10.00
2022-12-22T11:51:42.015Z,9.90
2022-12-22T11:54:30.546Z,9.90
2022-12-22T11:57:03.721Z,10.00
2022-12-22T11:59:39.251Z,10.00
2022-12-22T12:02:31.123Z,10.00
2022-12-22T12:05:13.008Z,10.10
2022-12-22T12:07:43.671Z,10.10
2022-12-22T12:10:16.059Z,10.20
2022-12-22T12:12:49.588Z,10.20
2022-12-22T12:15:25.723Z,10.30
2022-12-22T12:18:01.097Z,10.30
2022-12-22T12:20:34.968Z,10.30
2022-12-22T12:23:08.549Z,10.30
2022-12-22T12:25:40.586Z,10.40
2022-12-22T12:28:16.732Z,10.40
2022-12-22T12:30:51.550Z,10.50
2022-12-22T12:33:22.334Z,10.50
2022-12-22T12:35:57.479Z,10.50
2022-12-22T12:39:06.168Z,10.60
2022-12-22T12:41:21.845Z,10.60
2022-12-22T12:43:51.819Z,10.70
2022-12-22T12:46:38.914Z,10.70
2022-12-22T12:49:28.303Z,10.70
2022-12-22T12:51:56.863Z,10.80
2022-12-22T12:54:39.757Z,10.80
2022-12-22T12:57:12.581Z,10.90
2022-12-22T12:59:47.119Z,10.90
2022-12-22T13:02:39.268Z,11.00
2022-12-22T13:05:28.435Z,11.00
2022-12-22T13:08:15.840Z,11.00
2022-12-22T13:10:58.794Z,11.10
2022-12-22T13:13:48.015Z,11.10
2022-12-22T13:16:27.280Z,11.10
2022-12-22T13:18:58.888Z,11.10
2022-12-22T13:24:27.634Z,11.10
2022-12-22T13:27:02.338Z,11.10
2022-12-22T13:29:37.791Z,11.20
2022-12-22T13:32:16.645Z,11.20
2022-12-22T13:35:28.409Z,11.20
2022-12-22T13:37:40.676Z,11.20
2022-12-22T13:40:13.603Z,11.10
2022-12-22T13:42:43.286Z,11.10
2022-12-22T13:45:19.210Z,11.20
2022-12-22T13:47:48.153Z,11.20
2022-12-22T13:50:21.912Z,11.10
2022-12-22T13:52:50.693Z,11.10
2022-12-22T13:55:20.423Z,11.20
2022-12-22T13:57:53.277Z,11.20
2022-12-22T14:00:27.736Z,11.30
2022-12-22T14:02:56.248Z,11.20
2022-12-22T14:05:31.263Z,11.20
2022-12-22T14:08:00.663Z,11.20
2022-12-22T14:10:33.966Z,11.30
2022-12-22T14:13:03.497Z,11.30
2022-12-22T14:15:33.547Z,11.30
2022-12-22T14:18:01.653Z,11.30
2022-12-22T14:20:32.417Z,11.20
2022-12-22T14:23:02.926Z,11.20
2022-12-22T14:25:32.869Z,11.30
2022-12-22T14:28:01.109Z,11.30
2022-12-22T14:30:38.025Z,11.30
2022-12-22T14:33:27.112Z,11.30
2022-12-22T14:36:05.250Z,11.20
2022-12-22T14:38:39.867Z,11.20
2022-12-22T14:41:32.575Z,11.20
2022-12-22T14:44:01.096Z,11.20
2022-12-22T14:46:33.659Z,11.20
2022-12-22T14:49:13.082Z,11.20
2022-12-22T14:51:42.450Z,11.20
2022-12-22T14:54:19.104Z,11.20
2022-12-22T14:56:48.991Z,11.20
2022-12-22T14:59:23.704Z,11.20
2022-12-22T15:02:02.317Z,11.20
2022-12-22T15:04:31.884Z,11.20
2022-12-22T15:07:45.671Z,11.20
2022-12-22T15:10:15.571Z,11.10
2022-12-22T15:12:46.369Z,11.10
2022-12-22T15:15:19.370Z,11.00
2022-12-22T15:17:49.363Z,11.10
2022-12-22T15:20:20.649Z,11.10
2022-12-22T15:22:49.173Z,11.10
2022-12-22T15:25:18.946Z,11.10
2022-12-22T15:27:47.275Z,11.10
2022-12-22T15:30:17.092Z,11.10
2022-12-22T15:32:45.500Z,11.10
2022-12-22T15:35:17.974Z,11.00
2022-12-22T15:37:47.608Z,11.10
2022-12-22T15:40:16.898Z,11.00
2022-12-22T15:42:45.185Z,11.00
2022-12-22T15:45:13.872Z,11.10
2022-12-22T15:47:43.014Z,11.10
2022-12-22T15:50:15.534Z,11.10
2022-12-22T15:52:46.338Z,11.00
2022-12-22T15:55:17.133Z,11.00
2022-12-22T15:57:45.453Z,11.00
2022-12-22T16:00:14.339Z,11.00
2022-12-22T16:02:42.917Z,11.00
2022-12-22T16:05:11.733Z,11.00
2022-12-22T16:07:42.270Z,11.00
2022-12-22T16:10:21.590Z,11.00
2022-12-22T16:12:54.873Z,11.10
2022-12-22T16:15:23.057Z,11.00
2022-12-22T16:17:53.226Z,11.00
2022-12-22T16:20:21.283Z,11.00
2022-12-22T16:22:50.111Z,11.00
2022-12-22T16:25:21.013Z,10.90
2022-12-22T16:27:49.805Z,11.00
2022-12-22T16:30:19.650Z,10.90
2022-12-22T16:32:48.185Z,10.90
2022-12-22T16:35:17.441Z,10.80
2022-12-22T16:37:45.665Z,10.80
2022-12-22T16:40:14.029Z,10.80
2022-12-22T16:45:33.480Z,10.70
2022-12-22T16:48:02.321Z,10.70
2022-12-22T16:50:33.558Z,10.70
2022-12-22T16:53:02.412Z,10.70
2022-12-22T16:55:31.514Z,10.60
2022-12-22T16:58:00.884Z,10.60
2022-12-22T17:00:31.465Z,10.70
2022-12-22T17:03:01.525Z,10.70
2022-12-22T17:05:31.113Z,10.70
2022-12-22T17:07:59.639Z,10.70
2022-12-22T17:10:27.719Z,10.70
2022-12-22T17:12:57.267Z,10.70
2022-12-22T17:15:26.694Z,10.80
2022-12-22T17:17:54.945Z,10.70
2022-12-22T17:20:23.892Z,10.80
2022-12-22T17:22:55.241Z,10.80
2022-12-22T17:25:25.007Z,10.80
2022-12-22T17:27:53.310Z,10.70
2022-12-22T17:30:23.275Z,10.80
2022-12-22T17:32:53.642Z,10.80
2022-12-22T17:35:23.827Z,10.80
2022-12-22T17:37:53.186Z,10.80
2022-12-22T17:40:23.933Z,10.80
2022-12-22T17:42:52.045Z,10.80
2022-12-22T17:45:20.609Z,10.70
2022-12-22T17:47:48.773Z,10.70
2022-12-22T17:50:20.128Z,10.70
2022-12-22T17:52:48.726Z,10.70
2022-12-22T17:55:49.753Z,10.70
2022-12-22T17:58:11.799Z,10.70
2022-12-22T18:00:39.812Z,10.70
2022-12-22T18:03:12.217Z,10.60
2022-12-22T18:05:43.949Z,10.70
2022-12-22T18:08:14.111Z,10.60
2022-12-22T18:10:42.571Z,10.60
2022-12-22T18:13:15.109Z,10.60
2022-12-22T18:15:43.612Z,10.60
2022-12-22T18:18:13.227Z,10.60
2022-12-22T18:20:43.179Z,10.60
2022-12-22T18:23:16.403Z,10.50
2022-12-22T18:25:44.819Z,10.40
2022-12-22T18:28:14.109Z,10.50
2022-12-22T18:30:42.701Z,10.40
2022-12-22T18:33:10.769Z,10.40
2022-12-22T18:35:39.849Z,10.40
2022-12-22T18:38:16.558Z,10.40
2022-12-22T18:40:45.115Z,10.40
2022-12-22T18:43:13.828Z,10.30
2022-12-22T18:45:41.950Z,10.30
2022-12-22T18:48:09.979Z,10.30
2022-12-22T18:50:38.140Z,10.20
2022-12-22T18:53:17.745Z,10.20
2022-12-22T18:55:47.125Z,10.10
2022-12-22T18:58:16.015Z,10.10
2022-12-22T19:00:44.461Z,10.10
2022-12-22T19:03:23.480Z,10.10
2022-12-22T19:05:51.740Z,10.10
2022-12-22T19:08:21.173Z,10.10
2022-12-22T19:10:52.182Z,10.10
2022-12-22T19:13:22.149Z,10.00
2022-12-22T19:15:50.360Z,9.90
2022-12-22T19:18:26.019Z,9.90
2022-12-22T19:20:55.586Z,9.90
2022-12-22T19:23:24.738Z,9.90
2022-12-22T19:25:55.856Z,9.90
2022-12-22T19:28:26.279Z,9.80
2022-12-22T19:30:55.137Z,9.80
2022-12-22T19:33:24.813Z,9.80
2022-12-22T19:35:53.090Z,9.80
2022-12-22T19:38:24.711Z,9.80
2022-12-22T19:40:54.896Z,9.70
2022-12-22T19:43:23.216Z,9.70
2022-12-22T19:45:53.074Z,9.70
2022-12-22T19:48:23.615Z,9.60
2022-12-22T19:50:52.681Z,9.60
2022-12-22T19:53:21.255Z,9.60
2022-12-22T19:55:51.062Z,9.60
2022-12-22T19:58:22.475Z,9.60
2022-12-22T20:00:50.732Z,9.60
2022-12-22T20:03:23.103Z,9.60
2022-12-22T20:05:51.626Z,9.60
2022-12-22T20:08:20.010Z,9.60
2022-12-22T20:10:52.978Z,9.70
2022-12-22T20:13:27.266Z,9.60
2022-12-22T20:15:55.510Z,9.70
2022-12-22T20:18:24.616Z,9.70
2022-12-22T20:20:57.735Z,9.70
2022-12-22T20:23:26.132Z,9.80
2022-12-22T20:25:57.203Z,9.70
2022-12-22T20:28:27.931Z,9.80
2022-12-22T20:30:56.698Z,9.80
2022-12-22T20:33:25.739Z,9.80
2022-12-22T20:35:54.813Z,9.80
2022-12-22T20:38:25.480Z,9.90
2022-12-22T20:40:55.006Z,10.00
2022-12-22T20:43:24.306Z,9.90
2022-12-22T20:45:56.099Z,10.00
2022-12-22T20:48:27.958Z,9.90
2022-12-22T20:50:56.558Z,10.00
2022-12-22T20:53:24.664Z,9.90
2022-12-22T20:55:53.227Z,9.90
2022-12-22T20:58:23.468Z,10.00
2022-12-22T21:00:52.190Z,10.00
2022-12-22T21:03:22.265Z,10.00
2022-12-22T21:05:50.690Z,10.10
2022-12-22T21:08:20.877Z,10.10
2022-12-22T21:10:49.703Z,10.10
2022-12-22T21:13:18.691Z,10.10
2022-12-22T21:15:47.829Z,10.20
2022-12-22T21:18:16.978Z,10.10
2022-12-22T21:20:46.703Z,10.20
2022-12-22T21:23:16.700Z,10.20
2022-12-22T21:25:46.721Z,10.20
2022-12-22T21:28:20.442Z,10.20
2022-12-22T21:30:48.821Z,10.20
2022-12-22T21:33:16.882Z,10.20
2022-12-22T21:35:46.784Z,10.10
2022-12-22T21:38:17.301Z,10.20
2022-12-22T21:40:46.954Z,10.20
2022-12-22T21:43:15.521Z,10.20
2022-12-22T21:45:44.176Z,10.10
2022-12-22T21:48:12.805Z,10.20
2022-12-22T21:50:41.710Z,10.20
2022-12-22T21:53:18.053Z,10.20
2022-12-22T21:55:50.216Z,10.20
2022-12-22T21:58:18.260Z,10.20
2022-12-22T22:00:48.098Z,10.10
2022-12-22T22:03:16.960Z,10.10
2022-12-22T22:05:45.445Z,10.10
2022-12-22T22:08:15.531Z,10.10
2022-12-22T22:10:44.536Z,10.00
2022-12-22T22:13:14.452Z,10.00
2022-12-22T22:15:42.813Z,10.10
2022-12-22T22:18:15.588Z,10.10
2022-12-22T22:20:44.030Z,10.10
2022-12-22T22:23:13.777Z,10.00
2022-12-22T22:25:43.148Z,10.00
2022-12-22T22:28:12.020Z,10.00
2022-12-22T22:30:41.147Z,9.90
2022-12-22T22:33:09.298Z,9.90
2022-12-22T22:35:40.134Z,9.80
2022-12-22T22:38:08.327Z,9.90
2022-12-22T22:40:36.765Z,9.90
2022-12-22T22:43:06.189Z,9.90
2022-12-22T22:45:34.465Z,9.90
2022-12-22T22:48:07.733Z,10.00
2022-12-22T22:50:41.472Z,9.90
2022-12-22T22:53:09.677Z,9.90
2022-12-22T22:55:38.517Z,9.90
2022-12-22T22:58:08.191Z,9.80
2022-12-22T23:00:36.311Z,9.80
2022-12-22T23:03:05.086Z,9.80
2022-12-22T23:05:33.496Z,9.80
2022-12-22T23:08:01.567Z,9.70
2022-12-22T23:10:29.922Z,9.70
2022-12-22T23:12:57.961Z,9.80
2022-12-22T23:15:27.884Z,9.80
2022-12-22T23:17:56.011Z,9.70
2022-12-22T23:20:24.714Z,9.70
2022-12-22T23:22:52.811Z,9.70
2022-12-22T23:25:21.335Z,9.60
2022-12-22T23:27:49.370Z,9.70
2022-12-22T23:30:18.242Z,9.60
2022-12-22T23:32:47.619Z,9.60
2022-12-22T23:35:16.559Z,9.60
2022-12-22T23:37:44.618Z,9.60
2022-12-22T23:43:01.272Z,9.40
2022-12-22T23:45:29.703Z,9.40
2022-12-22T23:47:59.523Z,9.40
2022-12-22T23:50:28.545Z,9.50
2022-12-22T23:52:57.007Z,9.50
2022-12-22T23:55:25.233Z,9.40
2022-12-22T23:57:53.878Z,9.30
